Time;durP1;ratioP1;P1;durP2;ratioP2;P2;SDS_P1;SDS_P2;PMS_P1;PMS_P2;Temp;Humidity;BMP_temperature;BMP_pressure;BME280_temperature;BME280_humidity;BME280_pressure;Samples;Min_cycle;Max_cycle;Signal;HPM_P1;HPM_P2
2021/04/06 00:01:35;;;;;;;3.97;0.70;;;;;;;1.21;53.60;96927.97;5069470;28;20118;-76
2021/04/06 00:04:00;;;;;;;3.92;0.57;;;;;;;1.39;53.72;96917.97;5094153;27;20026;-76
2021/04/06 00:06:26;;;;;;;4.60;0.90;;;;;;;1.41;54.03;96913.44;5067778;27;20123;-76
2021/04/06 00:08:52;;;;;;;4.20;0.60;;;;;;;1.30;54.12;96908.84;5082522;28;20032;-76
2021/04/06 00:11:18;;;;;;;3.22;0.60;;;;;;;1.12;55.18;96914.50;5110323;27;20043;-76
2021/04/06 00:13:44;;;;;;;1.98;0.63;;;;;;;1.19;54.59;96915.34;5094743;27;20059;-76
2021/04/06 00:16:09;;;;;;;3.47;0.90;;;;;;;1.18;55.26;96912.97;5087776;27;20073;-76
2021/04/06 00:18:35;;;;;;;3.20;0.50;;;;;;;1.11;55.30;96918.06;5093586;27;20456;-76
2021/04/06 00:21:02;;;;;;;2.97;0.60;;;;;;;1.02;55.85;96921.75;5093724;27;20460;-76
2021/04/06 00:23:28;;;;;;;3.67;0.40;;;;;;;1.04;55.27;96923.13;5085549;27;20031;-76
2021/04/06 00:25:55;;;;;;;5.60;0.70;;;;;;;1.03;55.33;96920.75;5094169;27;20031;-76
2021/04/06 00:28:35;;;;;;;3.25;1.27;;;;;;;0.76;55.33;96917.28;5092630;27;20065;-76
2021/04/06 00:31:01;;;;;;;2.53;0.47;;;;;;;0.97;55.44;96918.97;5086581;27;20110;-76
2021/04/06 00:33:29;;;;;;;2.47;0.52;;;;;;;1.00;55.04;96918.59;5093428;27;20030;-76
2021/04/06 00:36:00;;;;;;;2.38;0.98;;;;;;;0.81;55.66;96923.41;5090083;28;20024;-76
2021/04/06 00:38:32;;;;;;;3.88;0.60;;;;;;;0.83;55.94;96923.25;5115535;27;20463;-76
2021/04/06 00:41:00;;;;;;;3.08;0.70;;;;;;;0.91;55.20;96912.84;5079585;28;20529;-76
2021/04/06 00:43:37;;;;;;;3.97;0.60;;;;;;;0.68;55.91;96907.97;5074511;27;20059;-76
2021/04/06 00:46:04;;;;;;;3.28;0.75;;;;;;;0.70;56.71;96900.88;5111027;27;20035;-76
2021/04/06 00:48:31;;;;;;;2.95;0.50;;;;;;;0.71;56.11;96898.13;5093654;27;20439;-76
2021/04/06 00:51:18;;;;;;;7.07;1.08;;;;;;;0.49;57.26;96902.50;5093105;27;20114;-76
2021/04/06 00:54:03;;;;;;;2.90;0.40;;;;;;;0.47;57.63;96914.72;5110531;27;20422;-76
2021/04/06 00:56:41;;;;;;;4.15;0.63;;;;;;;0.45;57.55;96906.44;5092482;27;20026;-76
2021/04/06 00:59:09;;;;;;;3.88;0.63;;;;;;;0.70;57.36;96909.38;5079620;27;20413;-76
2021/04/06 01:01:37;;;;;;;2.90;0.70;;;;;;;0.56;57.19;96907.69;5100314;28;20038;-76
2021/04/06 01:04:05;;;;;;;5.93;0.70;;;;;;;0.64;57.04;96899.09;5093855;28;20371;-76
2021/04/06 01:06:32;;;;;;;3.60;0.65;;;;;;;0.76;56.60;96910.38;5088682;27;20378;-76
2021/04/06 01:08:58;;;;;;;2.83;0.50;;;;;;;0.81;57.42;96913.16;5108705;27;20161;-76
2021/04/06 01:11:23;;;;;;;2.50;0.65;;;;;;;0.71;57.36;96897.34;5085602;28;20157;-76
2021/04/06 01:13:49;;;;;;;3.60;0.93;;;;;;;0.66;57.56;96903.03;5090380;28;20019;-76
2021/04/06 01:16:17;;;;;;;2.92;0.55;;;;;;;0.81;57.29;96900.34;5090635;28;20024;-76
2021/04/06 01:18:43;;;;;;;3.40;0.90;;;;;;;0.92;57.21;96904.16;5093216;28;20038;-76
2021/04/06 01:21:12;;;;;;;4.82;0.80;;;;;;;0.69;57.87;96904.44;5076388;28;20031;-76
2021/04/06 01:23:38;;;;;;;3.47;0.70;;;;;;;0.80;58.13;96898.75;5083309;28;20023;-76
2021/04/06 01:26:09;;;;;;;1.65;0.70;;;;;;;0.70;57.72;96896.56;5110756;28;20026;-76
2021/04/06 01:28:34;;;;;;;5.65;1.15;;;;;;;0.70;58.30;96899.13;5076308;28;20434;-76
2021/04/06 01:31:01;;;;;;;4.05;0.90;;;;;;;0.67;58.39;96891.00;5110490;28;20035;-76
2021/04/06 01:33:30;;;;;;;4.13;0.60;;;;;;;0.66;58.18;96894.56;5093456;28;20490;-76
2021/04/06 01:35:58;;;;;;;3.15;1.17;;;;;;;0.60;58.74;96888.41;5089733;28;20423;-76
2021/04/06 01:38:27;;;;;;;3.22;1.00;;;;;;;0.68;58.91;96893.38;5069224;28;20110;-76
2021/04/06 01:40:54;;;;;;;2.75;0.80;;;;;;;0.64;58.60;96892.19;5104856;28;20027;-76
2021/04/06 01:43:23;;;;;;;2.05;1.30;;;;;;;0.80;58.72;96887.72;5087271;28;20038;-76
2021/04/06 01:45:53;;;;;;;4.65;1.30;;;;;;;0.79;58.75;96889.50;5087229;28;20076;-76
2021/04/06 01:48:19;;;;;;;2.38;0.65;;;;;;;0.79;58.83;96883.56;5058955;28;20499;-76
2021/04/06 01:50:55;;;;;;;3.55;0.77;;;;;;;0.45;58.59;96883.38;5080531;27;20019;-76
2021/04/06 01:53:22;;;;;;;4.10;1.00;;;;;;;0.70;58.43;96877.81;5090797;27;20101;-76
2021/04/06 01:55:50;;;;;;;5.82;1.08;;;;;;;0.64;59.39;96874.25;5080531;27;20031;-76
2021/04/06 01:58:19;;;;;;;4.10;0.80;;;;;;;0.54;59.38;96860.97;5095626;27;20491;-76
2021/04/06 02:03:53;;;;;;;2.63;0.75;;;;;;;0.64;59.07;96860.66;5099552;27;20039;-76
2021/04/06 02:06:19;;;;;;;4.55;1.08;;;;;;;0.66;58.38;96859.47;5096962;27;20031;-76
2021/04/06 02:08:55;;;;;;;4.10;0.70;;;;;;;0.29;58.89;96847.81;5114007;27;20385;-76
2021/04/06 02:11:47;;;;;;;5.10;1.10;;;;;;;0.36;58.62;96854.56;5090935;27;20044;-76
2021/04/06 02:14:18;;;;;;;3.60;0.80;;;;;;;0.81;58.20;96863.69;5127907;27;20055;-76
2021/04/06 02:16:48;;;;;;;4.45;0.95;;;;;;;0.89;57.92;96864.34;5080458;27;20031;-76
2021/04/06 02:19:32;;;;;;;5.80;0.93;;;;;;;0.58;59.10;96856.28;5103551;28;20059;-76
2021/04/06 02:22:04;;;;;;;4.38;1.35;;;;;;;0.78;59.37;96859.72;5089896;27;20031;-76
2021/04/06 02:24:44;;;;;;;6.28;1.08;;;;;;;0.63;59.03;96859.06;5130412;27;20059;-76
2021/04/06 02:27:23;;;;;;;5.00;2.03;;;;;;;0.72;58.71;96852.78;5089527;27;20034;-76
2021/04/06 02:29:59;;;;;;;4.47;1.33;;;;;;;0.83;58.82;96861.72;5131863;27;20031;-76
2021/04/06 02:32:31;;;;;;;4.03;1.38;;;;;;;0.74;58.85;96861.88;5096571;27;20062;-76
2021/04/06 02:34:59;;;;;;;5.80;1.73;;;;;;;0.93;58.48;96860.41;5113736;27;20477;-76
2021/04/06 02:37:27;;;;;;;4.07;0.95;;;;;;;1.00;58.37;96865.56;5093148;27;20120;-76
2021/04/06 02:39:58;;;;;;;8.00;1.25;;;;;;;0.89;58.22;96864.34;5114155;27;20504;-76
2021/04/06 02:42:34;;;;;;;2.58;0.82;;;;;;;0.78;58.54;96862.28;5088848;28;20161;-76
2021/04/06 02:45:00;;;;;;;5.70;1.40;;;;;;;1.08;57.82;96862.84;5112768;27;20028;-75
2021/04/06 02:47:27;;;;;;;4.18;1.00;;;;;;;1.04;57.40;96859.06;5124645;27;20058;-76
2021/04/06 02:49:52;;;;;;;4.00;0.98;;;;;;;0.89;58.42;96860.94;5090100;28;20051;-76
2021/04/06 02:52:18;;;;;;;3.72;0.98;;;;;;;0.90;58.45;96854.84;5096037;27;20160;-76
2021/04/06 02:54:43;;;;;;;4.30;1.00;;;;;;;0.91;57.76;96862.34;5079787;27;20121;-75
2021/04/06 02:57:20;;;;;;;5.88;0.98;;;;;;;0.67;58.17;96865.38;5096479;27;20034;-76
2021/04/06 02:59:46;;;;;;;6.68;1.30;;;;;;;0.81;58.75;96867.03;5095327;27;20027;-75
2021/04/06 03:02:11;;;;;;;3.40;0.70;;;;;;;0.71;58.58;96856.34;5086006;27;20428;-75
2021/04/06 03:04:40;;;;;;;3.95;0.95;;;;;;;0.65;58.35;96857.91;5105642;28;20027;-75
2021/04/06 03:07:15;;;;;;;5.88;0.95;;;;;;;0.35;58.92;96859.88;5073919;27;20160;-75
2021/04/06 03:09:51;;;;;;;3.92;1.02;;;;;;;0.59;58.62;96857.84;5116101;27;20427;-76
2021/04/06 03:12:17;;;;;;;5.03;0.95;;;;;;;0.82;58.38;96863.47;5109789;27;20067;-75
2021/04/06 03:14:45;;;;;;;3.08;0.90;;;;;;;0.77;58.32;96865.81;5131719;27;20482;-75
2021/04/06 03:17:11;;;;;;;5.68;1.45;;;;;;;0.84;58.93;96856.41;5102769;27;20038;-76
2021/04/06 03:19:37;;;;;;;2.15;1.00;;;;;;;0.90;58.50;96852.28;5131079;27;20035;-75
2021/04/06 03:22:05;;;;;;;8.25;1.30;;;;;;;0.93;58.34;96842.44;5123495;27;20024;-75
2021/04/06 03:24:30;;;;;;;4.95;1.05;;;;;;;1.11;58.04;96851.38;5113072;27;20028;-75
2021/04/06 03:26:59;;;;;;;3.40;0.82;;;;;;;0.95;58.06;96851.72;5095821;27;20401;-75
2021/04/06 03:29:25;;;;;;;5.78;1.00;;;;;;;1.16;58.44;96848.25;5112541;27;20027;-75
2021/04/06 03:31:50;;;;;;;2.95;1.30;;;;;;;1.18;57.83;96852.19;5130961;27;20496;-75
2021/04/06 03:34:15;;;;;;;5.47;1.30;;;;;;;0.97;59.00;96840.28;5112153;27;20496;-75
2021/04/06 03:36:41;;;;;;;4.35;1.42;;;;;;;0.97;58.14;96836.94;5085892;27;20126;-75
2021/04/06 03:39:08;;;;;;;3.50;1.70;;;;;;;0.91;57.32;96838.50;5108928;28;20043;-75
2021/04/06 03:41:34;;;;;;;5.97;1.50;;;;;;;0.90;57.58;96840.25;5095835;27;20358;-75
2021/04/06 03:44:08;;;;;;;7.15;1.55;;;;;;;0.77;58.15;96835.06;5076792;27;20038;-75
2021/04/06 03:46:34;;;;;;;8.65;1.48;;;;;;;0.95;57.46;96826.88;5099795;27;20448;-75
2021/04/06 03:49:17;;;;;;;4.63;1.00;;;;;;;0.80;58.01;96834.69;5078544;27;20120;-75
2021/04/06 03:51:56;;;;;;;3.17;0.73;;;;;;;0.87;57.29;96825.25;5082822;27;20028;-75
2021/04/06 03:54:47;;;;;;;3.45;1.30;;;;;;;0.78;57.83;96821.28;5085088;27;20027;-75
2021/04/06 03:57:27;;;;;;;5.90;1.00;;;;;;;0.54;58.08;96827.69;5102059;28;20403;-75
2021/04/06 03:59:52;;;;;;;8.15;1.35;;;;;;;0.72;58.49;96827.97;5077036;27;20121;-75
2021/04/06 04:02:18;;;;;;;5.35;1.10;;;;;;;0.75;57.89;96824.22;5109628;27;20043;-75
2021/04/06 04:04:45;;;;;;;4.45;0.95;;;;;;;0.64;58.81;96823.00;5105378;27;20039;-75
2021/04/06 04:07:12;;;;;;;2.90;1.02;;;;;;;0.66;59.16;96815.91;5068591;27;20382;-75
2021/04/06 04:09:38;;;;;;;3.53;1.42;;;;;;;0.71;58.77;96826.38;5103615;27;20031;-75
2021/04/06 04:12:04;;;;;;;6.40;1.10;;;;;;;0.66;58.96;96827.94;5062564;27;20083;-75
2021/04/06 04:14:29;;;;;;;5.60;0.90;;;;;;;0.60;58.93;96826.94;5108468;27;20077;-75
2021/04/06 04:16:55;;;;;;;2.15;0.65;;;;;;;0.47;60.02;96840.44;5108809;28;20043;-75
2021/04/06 04:19:20;;;;;;;5.00;1.10;;;;;;;0.48;59.18;96842.03;5107854;28;20427;-75
2021/04/06 04:21:46;;;;;;;4.22;0.90;;;;;;;0.47;59.66;96837.88;5091099;28;20546;-75
2021/04/06 04:24:11;;;;;;;4.10;1.25;;;;;;;0.46;59.42;96833.72;5108391;28;20027;-75
2021/04/06 04:26:37;;;;;;;4.43;1.00;;;;;;;0.41;59.52;96841.19;5110355;27;20110;-75
2021/04/06 04:29:02;;;;;;;2.83;1.00;;;;;;;0.43;59.85;96843.56;5104674;27;20034;-75
2021/04/06 04:31:28;;;;;;;5.60;1.00;;;;;;;0.43;59.72;96841.81;5094542;27;20177;-75
2021/04/06 04:33:53;;;;;;;4.80;1.10;;;;;;;0.31;60.01;96844.09;5073563;28;20364;-75
2021/04/06 04:36:18;;;;;;;8.43;1.40;;;;;;;0.47;60.25;96843.00;5105215;27;20042;-75
2021/04/06 04:38:44;;;;;;;7.78;1.17;;;;;;;0.52;60.29;96845.78;5061567;28;20063;-75
2021/04/06 04:41:09;;;;;;;4.05;1.52;;;;;;;0.62;59.88;96840.34;5104712;27;20027;-75
2021/04/06 04:43:34;;;;;;;4.60;1.00;;;;;;;0.62;59.56;96827.53;5106988;27;20501;-75
2021/04/06 04:46:00;;;;;;;6.68;1.10;;;;;;;0.60;59.50;96838.94;5087494;27;20054;-75
2021/04/06 04:48:25;;;;;;;4.82;1.15;;;;;;;0.68;59.27;96831.88;5093291;28;20035;-75
2021/04/06 04:50:51;;;;;;;4.70;1.23;;;;;;;0.58;59.53;96828.88;5103040;28;20058;-75
2021/04/06 04:53:16;;;;;;;6.43;1.38;;;;;;;0.58;59.98;96830.66;5129342;27;20442;-75
2021/04/06 04:55:41;;;;;;;7.53;1.50;;;;;;;0.61;59.74;96835.41;5108731;27;20098;-75
2021/04/06 04:58:07;;;;;;;7.82;1.40;;;;;;;0.61;59.86;96837.97;5091374;27;20030;-75
2021/04/06 05:00:33;;;;;;;3.75;1.38;;;;;;;0.65;59.27;96839.16;5096266;28;20106;-75
2021/04/06 05:02:58;;;;;;;4.20;1.00;;;;;;;0.69;59.07;96840.38;5122375;27;20091;-75
2021/04/06 05:05:24;;;;;;;6.45;1.10;;;;;;;0.79;60.10;96838.25;5101919;28;20479;-75
2021/04/06 05:07:49;;;;;;;7.28;1.50;;;;;;;0.87;59.73;96855.22;5078383;28;20031;-75
2021/04/06 05:10:16;;;;;;;7.72;1.15;;;;;;;0.89;60.00;96848.13;5103395;28;20467;-75
2021/04/06 05:12:42;;;;;;;7.88;1.58;;;;;;;1.06;59.82;96844.28;5101820;28;20122;-75
2021/04/06 05:15:08;;;;;;;5.28;1.48;;;;;;;1.16;58.86;96838.00;5109711;28;20477;-75
2021/04/06 05:17:34;;;;;;;5.20;1.88;;;;;;;0.98;60.10;96830.81;5110143;28;20062;-75
2021/04/06 05:20:00;;;;;;;3.05;1.30;;;;;;;1.11;60.24;96829.13;5093033;28;20031;-75
2021/04/06 05:22:25;;;;;;;6.75;1.60;;;;;;;1.24;59.78;96846.31;5085618;28;20405;-75
2021/04/06 05:24:50;;;;;;;7.38;1.60;;;;;;;1.06;60.15;96841.72;5108870;28;20093;-75
2021/04/06 05:27:16;;;;;;;4.32;1.13;;;;;;;1.10;60.01;96839.56;5108895;28;20382;-75
2021/04/06 05:29:41;;;;;;;6.72;1.60;;;;;;;1.20;59.35;96836.63;5081608;28;20123;-75
2021/04/06 05:32:07;;;;;;;5.22;1.90;;;;;;;1.14;59.48;96840.75;5084939;27;20041;-75
2021/04/06 05:34:32;;;;;;;3.80;1.35;;;;;;;1.25;59.75;96834.25;5097952;27;20038;-75
2021/04/06 05:36:58;;;;;;;7.50;1.20;;;;;;;1.10;60.55;96837.78;5087160;27;20582;-75
2021/04/06 05:39:23;;;;;;;3.65;1.70;;;;;;;1.26;59.48;96849.47;5096426;27;20030;-75
2021/04/06 05:41:49;;;;;;;5.32;1.20;;;;;;;1.39;59.58;96851.28;5113506;27;20031;-75
2021/04/06 05:44:16;;;;;;;6.00;1.42;;;;;;;1.56;59.06;96835.53;5091873;27;20051;-75
2021/04/06 05:46:45;;;;;;;5.53;1.73;;;;;;;1.57;58.50;96839.69;5113093;27;20028;-75
2021/04/06 05:49:16;;;;;;;6.53;1.27;;;;;;;1.78;57.89;96836.16;5114348;27;20027;-76
2021/04/06 05:51:42;;;;;;;5.30;1.55;;;;;;;1.97;56.90;96844.84;5074264;27;20019;-76
2021/04/06 05:54:13;;;;;;;4.03;1.60;;;;;;;1.93;56.47;96854.72;5114865;27;20106;-76
2021/04/06 05:56:39;;;;;;;6.35;1.60;;;;;;;2.25;56.92;96847.22;5076628;27;20027;-75
2021/04/06 05:59:05;;;;;;;5.47;1.75;;;;;;;2.33;56.40;96841.88;5080205;27;20020;-76
2021/04/06 06:01:32;;;;;;;5.80;2.15;;;;;;;2.44;56.01;96848.97;5112900;27;20432;-75
2021/04/06 06:03:57;;;;;;;4.75;1.52;;;;;;;2.61;56.13;96840.84;5113573;27;20027;-75
2021/04/06 06:06:23;;;;;;;4.50;1.98;;;;;;;2.59;55.88;96845.41;5109138;27;20055;-75
2021/04/06 06:08:52;;;;;;;6.53;2.17;;;;;;;2.84;55.27;96860.16;5113673;27;20035;-75
2021/04/06 06:11:18;;;;;;;4.75;1.92;;;;;;;2.79;55.55;96847.91;5116185;27;20481;-75
2021/04/06 06:13:44;;;;;;;5.78;1.70;;;;;;;2.80;55.67;96854.63;5098661;27;20027;-75
2021/04/06 06:16:12;;;;;;;6.65;2.10;;;;;;;2.61;55.66;96857.03;5115371;27;20033;-75
2021/04/06 06:18:56;;;;;;;7.50;1.60;;;;;;;2.43;57.01;96851.72;5127523;27;20075;-75
2021/04/06 06:21:23;;;;;;;4.68;2.03;;;;;;;2.73;56.09;96853.84;5115356;27;20027;-74
2021/04/06 06:23:49;;;;;;;6.55;1.83;;;;;;;2.69;57.27;96853.47;5094347;27;20035;-75
2021/04/06 06:26:17;;;;;;;4.60;1.52;;;;;;;2.83;56.21;96851.66;5098389;27;20042;-75
2021/04/06 06:29:05;;;;;;;5.07;2.05;;;;;;;2.57;56.47;96850.72;5114932;27;20409;-75
2021/04/06 06:31:40;;;;;;;10.88;2.85;;;;;;;2.62;57.25;96853.50;5098409;27;20183;-75
2021/04/06 06:34:29;;;;;;;5.80;2.53;;;;;;;2.81;55.66;96851.84;5115565;27;20023;-75
2021/04/06 06:37:22;;;;;;;6.18;1.58;;;;;;;2.89;55.40;96847.47;5095239;27;20038;-75
2021/04/06 06:39:53;;;;;;;6.00;2.13;;;;;;;2.97;55.50;96849.81;5100504;27;20039;-75
2021/04/06 06:42:21;;;;;;;6.18;1.60;;;;;;;3.23;54.73;96850.72;5097950;27;20123;-75
2021/04/06 06:44:47;;;;;;;5.50;1.90;;;;;;;3.27;55.16;96850.06;5107497;27;20035;-75
2021/04/06 06:47:21;;;;;;;4.47;1.17;;;;;;;3.28;54.42;96841.38;5077001;28;20023;-76
2021/04/06 06:49:46;;;;;;;6.13;1.58;;;;;;;3.72;53.94;96842.31;5098332;27;20513;-75
2021/04/06 06:52:24;;;;;;;5.15;1.67;;;;;;;3.52;54.71;96842.44;5114571;27;20031;-76
2021/04/06 06:55:00;;;;;;;5.50;1.88;;;;;;;3.90;52.81;96844.16;5097622;27;20046;-76
2021/04/06 06:57:35;;;;;;;5.57;1.88;;;;;;;4.15;51.88;96845.16;5114881;27;20524;-76
2021/04/06 07:00:08;;;;;;;5.82;1.58;;;;;;;4.47;51.91;96856.97;5114686;27;20038;-76
2021/04/06 07:02:34;;;;;;;4.97;1.80;;;;;;;5.00;50.90;96854.84;5094389;28;20562;-76
2021/04/06 07:05:20;;;;;;;4.18;1.40;;;;;;;4.72;51.12;96863.09;5129505;27;20062;-76
2021/04/06 07:08:04;;;;;;;6.82;1.35;;;;;;;4.79;51.50;96862.00;5067680;28;20042;-76
2021/04/06 07:10:31;;;;;;;5.93;1.70;;;;;;;4.99;50.26;96851.47;5099992;27;20031;-76
2021/04/06 07:13:02;;;;;;;4.85;1.48;;;;;;;4.56;51.83;96861.84;5069188;27;20030;-76
2021/04/06 07:15:28;;;;;;;6.88;2.15;;;;;;;4.66;51.47;96862.13;5089976;27;20063;-76
2021/04/06 07:18:08;;;;;;;3.70;1.70;;;;;;;4.54;51.98;96866.44;5113662;27;20378;-77
2021/04/06 07:20:37;;;;;;;6.43;1.92;;;;;;;4.57;52.77;96856.47;5083740;27;20095;-76
2021/04/06 07:23:03;;;;;;;5.38;1.38;;;;;;;4.50;52.38;96853.19;5089696;27;20039;-76
2021/04/06 07:25:30;;;;;;;8.90;2.28;;;;;;;4.57;52.81;96860.84;5096960;27;20035;-76
2021/04/06 07:27:56;;;;;;;6.13;2.38;;;;;;;4.71;51.83;96859.72;5089795;27;20031;-76
2021/04/06 07:30:23;;;;;;;8.40;2.47;;;;;;;4.55;53.47;96855.13;5113929;27;20058;-76
2021/04/06 07:32:48;;;;;;;4.10;1.45;;;;;;;4.91;52.77;96856.16;5096644;27;20052;-76
2021/04/06 07:35:15;;;;;;;5.70;1.63;;;;;;;5.34;50.56;96860.41;5063691;28;20032;-76
2021/04/06 07:37:45;;;;;;;6.20;1.33;;;;;;;5.51;52.89;96842.50;5108706;27;20080;-76
2021/04/06 07:40:13;;;;;;;7.18;1.60;;;;;;;5.59;50.86;96855.09;5087644;27;20152;-76
2021/04/06 07:42:40;;;;;;;8.13;1.80;;;;;;;5.55;50.33;96853.97;5094512;27;20027;-76
2021/04/06 07:45:26;;;;;;;3.90;1.80;;;;;;;5.33;50.13;96853.66;5109008;27;20031;-76
2021/04/06 07:47:52;;;;;;;4.45;1.60;;;;;;;5.46;49.82;96863.03;5073537;27;20232;-77
2021/04/06 07:50:33;;;;;;;6.18;1.88;;;;;;;4.97;50.76;96868.97;5083529;27;20026;-77
2021/04/06 07:53:26;;;;;;;7.63;1.33;;;;;;;4.75;51.62;96867.84;5087602;28;20107;-76
2021/04/06 07:56:01;;;;;;;4.88;1.52;;;;;;;4.64;52.13;96864.97;5097789;27;20048;-77
2021/04/06 07:58:46;;;;;;;3.75;1.58;;;;;;;4.79;52.09;96874.13;5108077;28;20110;-77
2021/04/06 08:01:18;;;;;;;4.55;1.88;;;;;;;4.90;51.15;96870.84;5099603;27;20551;-77
2021/04/06 08:03:50;;;;;;;5.18;1.90;;;;;;;4.70;52.28;96873.63;5099391;27;20035;-77
2021/04/06 08:06:27;;;;;;;9.55;1.80;;;;;;;4.88;51.76;96872.84;5120266;27;20331;-77
2021/04/06 08:08:52;;;;;;;6.53;2.50;;;;;;;5.42;50.79;96871.22;5109366;27;20512;-77
2021/04/06 08:11:18;;;;;;;8.18;2.67;;;;;;;5.61;49.53;96873.75;5092975;27;20071;-77
2021/04/06 08:13:45;;;;;;;4.97;2.13;;;;;;;5.54;51.09;96878.22;5091532;28;20031;-76
2021/04/06 08:16:15;;;;;;;7.38;2.03;;;;;;;5.38;51.53;96877.81;5089430;27;20027;-77
2021/04/06 08:18:50;;;;;;;5.63;2.25;;;;;;;5.69;51.96;96876.03;5109104;27;20121;-76
2021/04/06 08:21:17;;;;;;;3.78;1.83;;;;;;;6.16;49.47;96870.19;5110137;27;20039;-77
2021/04/06 08:23:47;;;;;;;7.38;1.88;;;;;;;6.44;48.60;96879.09;5075222;27;20035;-77
2021/04/06 08:26:24;;;;;;;4.03;2.10;;;;;;;6.08;49.22;96873.09;5093388;27;20028;-76
2021/04/06 08:28:49;;;;;;;6.90;2.53;;;;;;;6.29;49.34;96869.19;5128842;27;20035;-76
2021/04/06 08:31:20;;;;;;;6.72;2.17;;;;;;;5.96;50.33;96865.31;5076252;27;20026;-77
2021/04/06 08:33:45;;;;;;;4.53;1.73;;;;;;;6.29;48.06;96864.00;5128795;27;20051;-76
2021/04/06 08:36:20;;;;;;;8.13;2.92;;;;;;;5.96;50.75;96867.91;5107764;27;20057;-76
2021/04/06 08:38:46;;;;;;;8.82;2.67;;;;;;;6.26;49.98;96869.66;5092562;27;20680;-77
2021/04/06 08:41:21;;;;;;;5.90;1.60;;;;;;;6.44;46.92;96861.75;5111209;27;20055;-77
2021/04/06 08:43:52;;;;;;;4.60;1.58;;;;;;;6.41;47.56;96876.94;5129396;27;20054;-77
2021/04/06 08:46:51;;;;;;;5.00;1.70;;;;;;;6.33;48.27;96873.69;5075792;27;20069;-76
2021/04/06 08:49:20;;;;;;;4.72;1.60;;;;;;;6.88;47.31;96872.53;5110895;27;20031;-77
2021/04/06 08:51:58;;;;;;;5.32;1.60;;;;;;;6.87;46.84;96873.56;5084778;28;20035;-77
2021/04/06 08:54:26;;;;;;;5.18;1.23;;;;;;;6.59;46.25;96874.25;5089311;27;20385;-77
2021/04/06 08:56:59;;;;;;;5.72;1.52;;;;;;;6.40;47.45;96865.81;5107791;27;20507;-77
2021/04/06 08:59:35;;;;;;;5.43;1.70;;;;;;;6.34;46.39;96877.88;5110004;27;20058;-77
2021/04/06 09:02:15;;;;;;;2.90;0.95;;;;;;;6.14;46.74;96877.41;5095306;27;20031;-76
2021/04/06 09:04:48;;;;;;;5.20;1.35;;;;;;;6.03;46.84;96875.56;5091810;27;20155;-77
2021/04/06 09:07:19;;;;;;;4.35;1.27;;;;;;;6.22;47.21;96878.84;5092445;28;20035;-77
2021/04/06 09:09:44;;;;;;;6.28;1.23;;;;;;;6.42;46.47;96875.94;5116273;27;20038;-77
2021/04/06 09:12:10;;;;;;;4.07;2.13;;;;;;;6.29;47.04;96875.16;5110515;28;20478;-77
2021/04/06 09:14:36;;;;;;;3.53;1.42;;;;;;;6.62;48.00;96867.84;5070109;28;20041;-77
2021/04/06 09:17:02;;;;;;;5.78;2.10;;;;;;;6.52;46.04;96866.59;5092756;27;20114;-76
2021/04/06 09:19:28;;;;;;;4.93;1.55;;;;;;;6.75;48.77;96863.22;5108447;28;20040;-77
2021/04/06 09:21:59;;;;;;;5.57;1.83;;;;;;;6.89;46.07;96858.59;5087004;28;20024;-77
2021/04/06 09:24:26;;;;;;;4.18;1.10;;;;;;;7.20;44.98;96866.97;5093391;28;20049;-76
2021/04/06 09:26:55;;;;;;;6.00;1.35;;;;;;;7.20;45.26;96859.19;5109884;28;20114;-76
2021/04/06 09:29:22;;;;;;;4.32;1.20;;;;;;;6.63;45.84;96859.88;5095410;28;20230;-77
2021/04/06 09:31:52;;;;;;;5.53;1.17;;;;;;;6.40;43.71;96860.66;5093550;28;20031;-77
2021/04/06 09:34:20;;;;;;;5.28;1.05;;;;;;;6.26;44.91;96848.97;5110639;28;20031;-77
2021/04/06 09:36:57;;;;;;;4.10;0.93;;;;;;;6.65;44.16;96849.28;5105189;28;20039;-77
2021/04/06 09:39:24;;;;;;;2.95;0.93;;;;;;;6.80;43.55;96848.81;5109878;28;20031;-76
2021/04/06 09:41:50;;;;;;;5.03;0.88;;;;;;;6.31;44.02;96849.88;5109703;28;20050;-76
2021/04/06 09:44:20;;;;;;;3.60;0.95;;;;;;;6.28;45.99;96841.78;5110158;28;20031;-76
2021/04/06 09:46:49;;;;;;;4.13;1.15;;;;;;;6.54;45.05;96846.47;5085361;28;20032;-76
2021/04/06 09:49:16;;;;;;;3.85;1.10;;;;;;;6.49;44.46;96843.00;5110164;28;20118;-77
2021/04/06 09:51:49;;;;;;;5.28;1.25;;;;;;;6.93;44.72;96838.22;5110455;28;20423;-77
2021/04/06 09:54:28;;;;;;;3.03;1.17;;;;;;;7.35;44.17;96827.63;5092214;28;20354;-76
2021/04/06 09:56:55;;;;;;;5.18;1.02;;;;;;;7.65;43.51;96840.31;5101858;28;20114;-76
2021/04/06 09:59:21;;;;;;;4.63;1.00;;;;;;;7.83;41.98;96828.16;5093310;28;20098;-76
2021/04/06 10:01:51;;;;;;;2.35;0.90;;;;;;;7.97;42.24;96826.84;5062847;28;20062;-76
2021/04/06 10:04:31;;;;;;;1.50;0.82;;;;;;;7.85;41.75;96829.50;5086203;28;20036;-76
2021/04/06 10:07:09;;;;;;;3.80;1.30;;;;;;;7.13;41.58;96832.66;5122257;28;20031;-76
2021/04/06 10:09:36;;;;;;;6.05;1.50;;;;;;;7.48;40.83;96818.78;5089637;27;20533;-77
2021/04/06 10:12:02;;;;;;;4.18;0.98;;;;;;;7.80;42.41;96820.88;5131384;27;20343;-76
2021/04/06 10:14:28;;;;;;;4.13;0.70;;;;;;;8.15;40.56;96812.81;5080134;28;20386;-76
2021/04/06 10:17:16;;;;;;;3.78;0.85;;;;;;;7.59;40.48;96820.53;5131686;27;20084;-76
2021/04/06 10:19:49;;;;;;;2.22;1.23;;;;;;;7.37;39.74;96806.66;5097684;27;20031;-76
2021/04/06 10:22:16;;;;;;;3.30;0.68;;;;;;;7.19;41.45;96805.81;5093386;27;20027;-77
2021/04/06 10:24:41;;;;;;;4.00;0.95;;;;;;;7.48;42.10;96806.59;5097078;27;20028;-77
2021/04/06 10:27:18;;;;;;;3.72;0.70;;;;;;;7.20;42.36;96811.81;5096881;27;20076;-77
2021/04/06 10:29:45;;;;;;;1.25;0.60;;;;;;;7.74;42.59;96794.06;5112740;27;20079;-77
2021/04/06 10:32:46;;;;;;;4.10;0.80;;;;;;;7.84;40.44;96798.63;5091268;27;20027;-77
2021/04/06 10:35:25;;;;;;;4.65;0.82;;;;;;;8.16;38.97;96792.88;5071860;27;20242;-76
2021/04/06 10:37:54;;;;;;;2.30;0.70;;;;;;;8.69;38.41;96791.53;5099045;28;20029;-77
2021/04/06 10:40:36;;;;;;;2.08;0.60;;;;;;;8.16;39.63;96783.28;5114552;27;20032;-76
2021/04/06 10:43:17;;;;;;;4.38;0.82;;;;;;;8.19;42.77;96769.03;5095398;27;20031;-76
2021/04/06 10:45:45;;;;;;;3.58;0.95;;;;;;;8.92;39.00;96779.31;5109288;27;20080;-77
2021/04/06 10:48:20;;;;;;;3.40;1.00;;;;;;;8.31;38.26;96782.72;5096865;27;20034;-76
2021/04/06 10:50:54;;;;;;;1.70;0.77;;;;;;;7.92;40.53;96787.06;5113707;27;20382;-77
2021/04/06 10:53:28;;;;;;;2.47;0.90;;;;;;;7.01;42.27;96788.69;5114202;27;20423;-77
2021/04/06 10:56:03;;;;;;;3.05;0.80;;;;;;;6.74;45.44;96783.25;5114202;27;20027;-77
2021/04/06 10:58:31;;;;;;;3.72;0.90;;;;;;;6.64;44.27;96783.03;5133206;27;20480;-77
2021/04/06 11:01:04;;;;;;;3.30;0.82;;;;;;;6.80;44.82;96771.97;5073791;27;20027;-77
2021/04/06 11:03:47;;;;;;;2.67;0.45;;;;;;;7.11;42.26;96765.56;5120881;27;20040;-77
2021/04/06 11:06:17;;;;;;;2.83;0.70;;;;;;;7.98;42.27;96758.38;5079145;27;20027;-77
2021/04/06 11:08:45;;;;;;;3.83;0.80;;;;;;;9.10;43.84;96739.25;5090443;27;20490;-77
2021/04/06 11:11:17;;;;;;;2.22;0.57;;;;;;;9.13;40.23;96739.56;5090365;27;20441;-76
2021/04/06 11:13:42;;;;;;;2.88;1.13;;;;;;;8.90;41.29;96727.63;5096433;27;20073;-77
2021/04/06 11:16:10;;;;;;;2.97;0.50;;;;;;;8.62;39.53;96741.63;5063624;27;20027;-77
2021/04/06 11:18:36;;;;;;;1.67;0.50;;;;;;;8.41;40.93;96743.94;5096262;27;20383;-77
2021/04/06 11:21:03;;;;;;;1.30;0.40;;;;;;;8.08;40.22;96749.97;5090217;28;20039;-77
2021/04/06 11:23:29;;;;;;;1.67;0.57;;;;;;;8.15;40.68;96745.41;5077878;27;20040;-77
2021/04/06 11:25:54;;;;;;;1.20;0.60;;;;;;;7.93;40.97;96747.94;5110546;27;20106;-77
2021/04/06 11:28:20;;;;;;;1.17;0.80;;;;;;;7.59;41.28;96750.56;5090881;28;20343;-76
2021/04/06 11:30:45;;;;;;;2.13;0.60;;;;;;;7.71;41.72;96752.28;5110547;28;20162;-77
2021/04/06 11:33:10;;;;;;;2.22;0.55;;;;;;;7.57;41.69;96752.59;5110321;28;20028;-77
2021/04/06 11:35:36;;;;;;;1.90;0.68;;;;;;;7.54;40.73;96744.50;5112413;27;20514;-77
2021/04/06 11:38:02;;;;;;;0.95;0.30;;;;;;;7.20;41.14;96750.44;5091588;28;20397;-77
2021/04/06 11:40:28;;;;;;;5.05;3.58;;;;;;;6.82;40.66;96743.28;5114094;27;20412;-76
2021/04/06 11:42:53;;;;;;;1.30;0.43;;;;;;;7.43;39.11;96740.97;5095943;27;20031;-78
2021/04/06 11:45:22;;;;;;;1.70;0.55;;;;;;;7.97;38.81;96743.88;5114272;27;20439;-77
2021/04/06 11:47:52;;;;;;;1.80;0.40;;;;;;;8.22;38.49;96732.28;5097340;27;20035;-77
2021/04/06 11:50:18;;;;;;;2.30;0.43;;;;;;;8.25;37.53;96742.94;5111337;27;20039;-77
2021/04/06 11:52:44;;;;;;;2.35;0.43;;;;;;;7.96;36.01;96734.50;5074395;28;20063;-77
2021/04/06 11:55:10;;;;;;;1.00;0.57;;;;;;;8.16;35.62;96728.06;5078005;27;20401;-78
2021/04/06 11:57:35;;;;;;;1.58;0.73;;;;;;;8.02;37.09;96720.63;5108137;27;20023;-77